sensor_id;sensor_type;location;lat;lon;timestamp;pressure;altitude;pressure_sealevel;temperature
71564;BMP180;59391;52.504;13.438;2023-09-19T00:02:18;100245.00;;;22.70
71564;BMP180;59391;52.504;13.438;2023-09-19T00:04:43;100242.00;;;22.70
71564;BMP180;59391;52.504;13.438;2023-09-19T00:07:10;100242.00;;;22.70
71564;BMP180;59391;52.504;13.438;2023-09-19T00:09:35;100248.00;;;22.60
71564;BMP180;59391;52.504;13.438;2023-09-19T00:12:06;100245.00;;;22.60
71564;BMP180;59391;52.504;13.438;2023-09-19T00:14:32;100241.00;;;22.60
71564;BMP180;59391;52.504;13.438;2023-09-19T00:17:04;100248.00;;;22.60
71564;BMP180;59391;52.504;13.438;2023-09-19T00:19:35;100235.00;;;22.50
71564;BMP180;59391;52.504;13.438;2023-09-19T00:22:01;100236.00;;;22.50
71564;BMP180;59391;52.504;13.438;2023-09-19T00:24:28;100238.00;;;22.50
71564;BMP180;59391;52.504;13.438;2023-09-19T00:26:54;100231.00;;;22.50
71564;BMP180;59391;52.504;13.438;2023-09-19T00:29:21;100239.00;;;22.50
71564;BMP180;59391;52.504;13.438;2023-09-19T00:31:48;100234.00;;;22.50
71564;BMP180;59391;52.504;13.438;2023-09-19T00:34:15;100241.00;;;22.50
71564;BMP180;59391;52.504;13.438;2023-09-19T00:36:42;100234.00;;;22.40
71564;BMP180;59391;52.504;13.438;2023-09-19T00:39:08;100237.00;;;22.40
71564;BMP180;59391;52.504;13.438;2023-09-19T00:41:34;100235.00;;;22.40
71564;BMP180;59391;52.504;13.438;2023-09-19T00:44:04;100232.00;;;22.40
71564;BMP180;59391;52.504;13.438;2023-09-19T00:46:31;100237.00;;;22.40
71564;BMP180;59391;52.504;13.438;2023-09-19T00:48:58;100231.00;;;22.40
71564;BMP180;59391;52.504;13.438;2023-09-19T00:51:25;100238.00;;;22.40
71564;BMP180;59391;52.504;13.438;2023-09-19T00:53:53;100241.00;;;22.40
71564;BMP180;59391;52.504;13.438;2023-09-19T00:56:19;100238.00;;;22.40
71564;BMP180;59391;52.504;13.438;2023-09-19T00:58:46;100235.00;;;22.30
71564;BMP180;59391;52.504;13.438;2023-09-19T01:01:13;100243.00;;;22.30
71564;BMP180;59391;52.504;13.438;2023-09-19T01:03:41;100240.00;;;22.20
71564;BMP180;59391;52.504;13.438;2023-09-19T01:06:07;100245.00;;;22.20
71564;BMP180;59391;52.504;13.438;2023-09-19T01:08:35;100238.00;;;22.20
71564;BMP180;59391;52.504;13.438;2023-09-19T01:11:40;100241.00;;;22.10
71564;BMP180;59391;52.504;13.438;2023-09-19T01:14:37;100231.00;;;22.10
71564;BMP180;59391;52.504;13.438;2023-09-19T01:17:15;100241.00;;;22.10
71564;BMP180;59391;52.504;13.438;2023-09-19T01:23:14;100251.00;;;21.90
71564;BMP180;59391;52.504;13.438;2023-09-19T01:26:06;100243.00;;;21.90
71564;BMP180;59391;52.504;13.438;2023-09-19T01:31:42;100241.00;;;21.80
71564;BMP180;59391;52.504;13.438;2023-09-19T01:34:08;100244.00;;;21.80
71564;BMP180;59391;52.504;13.438;2023-09-19T01:36:36;100239.00;;;21.80
71564;BMP180;59391;52.504;13.438;2023-09-19T01:39:13;100237.00;;;21.80
71564;BMP180;59391;52.504;13.438;2023-09-19T01:42:04;100246.00;;;21.80
71564;BMP180;59391;52.504;13.438;2023-09-19T01:47:33;100247.00;;;21.80
71564;BMP180;59391;52.504;13.438;2023-09-19T01:53:23;100244.00;;;21.80
71564;BMP180;59391;52.504;13.438;2023-09-19T01:55:51;100242.00;;;21.80
71564;BMP180;59391;52.504;13.438;2023-09-19T01:58:28;100237.00;;;21.80
71564;BMP180;59391;52.504;13.438;2023-09-19T02:00:58;100243.00;;;21.80
71564;BMP180;59391;52.504;13.438;2023-09-19T02:03:26;100242.00;;;21.90
71564;BMP180;59391;52.504;13.438;2023-09-19T02:05:54;100244.00;;;21.90
71564;BMP180;59391;52.504;13.438;2023-09-19T02:08:22;100250.00;;;21.90
71564;BMP180;59391;52.504;13.438;2023-09-19T02:10:51;100261.00;;;21.90
71564;BMP180;59391;52.504;13.438;2023-09-19T02:13:19;100259.00;;;21.80
71564;BMP180;59391;52.504;13.438;2023-09-19T02:15:46;100257.00;;;21.90
71564;BMP180;59391;52.504;13.438;2023-09-19T02:18:12;100257.00;;;21.80
71564;BMP180;59391;52.504;13.438;2023-09-19T02:20:39;100264.00;;;21.80
71564;BMP180;59391;52.504;13.438;2023-09-19T02:23:06;100264.00;;;21.90
71564;BMP180;59391;52.504;13.438;2023-09-19T02:25:32;100261.00;;;21.80
71564;BMP180;59391;52.504;13.438;2023-09-19T02:27:57;100273.00;;;21.80
71564;BMP180;59391;52.504;13.438;2023-09-19T02:30:29;100274.00;;;21.80
71564;BMP180;59391;52.504;13.438;2023-09-19T02:32:55;100277.00;;;21.80
71564;BMP180;59391;52.504;13.438;2023-09-19T02:35:21;100275.00;;;21.70
71564;BMP180;59391;52.504;13.438;2023-09-19T02:37:47;100281.00;;;21.80
71564;BMP180;59391;52.504;13.438;2023-09-19T02:40:13;100273.00;;;21.80
71564;BMP180;59391;52.504;13.438;2023-09-19T02:42:49;100278.00;;;21.70
71564;BMP180;59391;52.504;13.438;2023-09-19T02:45:19;100267.00;;;21.70
71564;BMP180;59391;52.504;13.438;2023-09-19T02:47:45;100287.00;;;21.70
71564;BMP180;59391;52.504;13.438;2023-09-19T02:50:12;100288.00;;;21.70
71564;BMP180;59391;52.504;13.438;2023-09-19T02:52:41;100290.00;;;21.70
71564;BMP180;59391;52.504;13.438;2023-09-19T02:55:09;100286.00;;;21.70
71564;BMP180;59391;52.504;13.438;2023-09-19T02:57:36;100287.00;;;21.70
71564;BMP180;59391;52.504;13.438;2023-09-19T03:00:09;100290.00;;;21.70
71564;BMP180;59391;52.504;13.438;2023-09-19T03:02:38;100291.00;;;21.70
71564;BMP180;59391;52.504;13.438;2023-09-19T03:05:06;100302.00;;;21.70
71564;BMP180;59391;52.504;13.438;2023-09-19T03:07:32;100293.00;;;21.70
71564;BMP180;59391;52.504;13.438;2023-09-19T03:09:59;100305.00;;;21.70
71564;BMP180;59391;52.504;13.438;2023-09-19T03:12:28;100307.00;;;21.70
71564;BMP180;59391;52.504;13.438;2023-09-19T03:14:54;100315.00;;;21.60
71564;BMP180;59391;52.504;13.438;2023-09-19T03:17:20;100303.00;;;21.70
71564;BMP180;59391;52.504;13.438;2023-09-19T03:19:46;100310.00;;;21.70
71564;BMP180;59391;52.504;13.438;2023-09-19T03:22:16;100308.00;;;21.70
71564;BMP180;59391;52.504;13.438;2023-09-19T03:24:43;100313.00;;;21.70
71564;BMP180;59391;52.504;13.438;2023-09-19T03:27:10;100314.00;;;21.70
71564;BMP180;59391;52.504;13.438;2023-09-19T03:29:36;100318.00;;;21.80
71564;BMP180;59391;52.504;13.438;2023-09-19T03:32:02;100312.00;;;21.80
71564;BMP180;59391;52.504;13.438;2023-09-19T03:34:28;100319.00;;;21.80
71564;BMP180;59391;52.504;13.438;2023-09-19T03:36:54;100319.00;;;21.80
71564;BMP180;59391;52.504;13.438;2023-09-19T03:39:20;100325.00;;;21.90
71564;BMP180;59391;52.504;13.438;2023-09-19T03:41:46;100325.00;;;21.90
71564;BMP180;59391;52.504;13.438;2023-09-19T03:44:12;100334.00;;;21.90
71564;BMP180;59391;52.504;13.438;2023-09-19T03:46:37;100322.00;;;21.90
71564;BMP180;59391;52.504;13.438;2023-09-19T03:49:04;100331.00;;;21.90
71564;BMP180;59391;52.504;13.438;2023-09-19T03:51:29;100340.00;;;22.00
71564;BMP180;59391;52.504;13.438;2023-09-19T03:53:55;100331.00;;;22.00
71564;BMP180;59391;52.504;13.438;2023-09-19T03:56:21;100338.00;;;22.00
71564;BMP180;59391;52.504;13.438;2023-09-19T03:58:47;100338.00;;;22.10
71564;BMP180;59391;52.504;13.438;2023-09-19T04:01:13;100333.00;;;22.10
71564;BMP180;59391;52.504;13.438;2023-09-19T04:03:39;100342.00;;;22.10
71564;BMP180;59391;52.504;13.438;2023-09-19T04:06:14;100338.00;;;22.10
71564;BMP180;59391;52.504;13.438;2023-09-19T04:08:40;100344.00;;;22.10
71564;BMP180;59391;52.504;13.438;2023-09-19T04:11:06;100341.00;;;22.00
71564;BMP180;59391;52.504;13.438;2023-09-19T04:13:32;100351.00;;;22.00
71564;BMP180;59391;52.504;13.438;2023-09-19T04:15:57;100344.00;;;22.00
71564;BMP180;59391;52.504;13.438;2023-09-19T04:18:23;100351.00;;;22.00
71564;BMP180;59391;52.504;13.438;2023-09-19T04:20:52;100337.00;;;22.00
71564;BMP180;59391;52.504;13.438;2023-09-19T04:23:19;100336.00;;;22.00
71564;BMP180;59391;52.504;13.438;2023-09-19T04:25:47;100353.00;;;22.00
71564;BMP180;59391;52.504;13.438;2023-09-19T04:28:14;100360.00;;;22.00
71564;BMP180;59391;52.504;13.438;2023-09-19T04:30:39;100356.00;;;22.00
71564;BMP180;59391;52.504;13.438;2023-09-19T04:33:08;100351.00;;;22.00
71564;BMP180;59391;52.504;13.438;2023-09-19T04:35:34;100362.00;;;22.00
71564;BMP180;59391;52.504;13.438;2023-09-19T04:38:00;100372.00;;;22.00
71564;BMP180;59391;52.504;13.438;2023-09-19T04:40:26;100372.00;;;22.00
71564;BMP180;59391;52.504;13.438;2023-09-19T04:42:57;100368.00;;;22.00
71564;BMP180;59391;52.504;13.438;2023-09-19T04:45:24;100377.00;;;22.00
71564;BMP180;59391;52.504;13.438;2023-09-19T04:47:50;100390.00;;;22.00
71564;BMP180;59391;52.504;13.438;2023-09-19T04:50:16;100379.00;;;22.00
71564;BMP180;59391;52.504;13.438;2023-09-19T04:52:44;100374.00;;;22.00
71564;BMP180;59391;52.504;13.438;2023-09-19T04:55:12;100378.00;;;22.00
71564;BMP180;59391;52.504;13.438;2023-09-19T04:57:44;100379.00;;;22.00
71564;BMP180;59391;52.504;13.438;2023-09-19T05:00:13;100392.00;;;21.90
71564;BMP180;59391;52.504;13.438;2023-09-19T05:02:41;100380.00;;;21.90
71564;BMP180;59391;52.504;13.438;2023-09-19T05:05:08;100385.00;;;21.90
71564;BMP180;59391;52.504;13.438;2023-09-19T05:07:35;100390.00;;;21.90
71564;BMP180;59391;52.504;13.438;2023-09-19T05:10:02;100395.00;;;21.90
71564;BMP180;59391;52.504;13.438;2023-09-19T05:12:34;100397.00;;;21.90
71564;BMP180;59391;52.504;13.438;2023-09-19T05:15:07;100399.00;;;21.90
71564;BMP180;59391;52.504;13.438;2023-09-19T05:17:34;100404.00;;;21.90
71564;BMP180;59391;52.504;13.438;2023-09-19T05:20:04;100405.00;;;21.80
71564;BMP180;59391;52.504;13.438;2023-09-19T05:22:43;100414.00;;;21.80
71564;BMP180;59391;52.504;13.438;2023-09-19T05:25:10;100405.00;;;21.80
71564;BMP180;59391;52.504;13.438;2023-09-19T05:27:36;100425.00;;;21.70
71564;BMP180;59391;52.504;13.438;2023-09-19T05:30:02;100438.00;;;21.70
71564;BMP180;59391;52.504;13.438;2023-09-19T05:32:28;100427.00;;;21.70
71564;BMP180;59391;52.504;13.438;2023-09-19T05:34:54;100427.00;;;21.70
71564;BMP180;59391;52.504;13.438;2023-09-19T05:37:22;100427.00;;;21.70
71564;BMP180;59391;52.504;13.438;2023-09-19T05:39:49;100439.00;;;21.70
71564;BMP180;59391;52.504;13.438;2023-09-19T05:42:14;100442.00;;;21.70
71564;BMP180;59391;52.504;13.438;2023-09-19T05:44:40;100450.00;;;21.70
71564;BMP180;59391;52.504;13.438;2023-09-19T05:47:06;100455.00;;;21.60
71564;BMP180;59391;52.504;13.438;2023-09-19T05:49:37;100459.00;;;21.60
71564;BMP180;59391;52.504;13.438;2023-09-19T05:52:06;100460.00;;;21.60
71564;BMP180;59391;52.504;13.438;2023-09-19T05:54:33;100469.00;;;21.60
71564;BMP180;59391;52.504;13.438;2023-09-19T05:57:00;100462.00;;;21.60
71564;BMP180;59391;52.504;13.438;2023-09-19T05:59:27;100471.00;;;21.60
71564;BMP180;59391;52.504;13.438;2023-09-19T06:01:53;100471.00;;;21.60
71564;BMP180;59391;52.504;13.438;2023-09-19T06:04:18;100476.00;;;21.50
71564;BMP180;59391;52.504;13.438;2023-09-19T06:06:45;100476.00;;;21.50
71564;BMP180;59391;52.504;13.438;2023-09-19T06:09:10;100483.00;;;21.50
71564;BMP180;59391;52.504;13.438;2023-09-19T06:11:36;100482.00;;;21.50
71564;BMP180;59391;52.504;13.438;2023-09-19T06:14:03;100493.00;;;21.50
71564;BMP180;59391;52.504;13.438;2023-09-19T06:16:30;100505.00;;;21.40
71564;BMP180;59391;52.504;13.438;2023-09-19T06:18:57;100498.00;;;21.40
71564;BMP180;59391;52.504;13.438;2023-09-19T06:21:26;100500.00;;;21.40
71564;BMP180;59391;52.504;13.438;2023-09-19T06:23:53;100504.00;;;21.40
71564;BMP180;59391;52.504;13.438;2023-09-19T06:26:19;100496.00;;;21.40
71564;BMP180;59391;52.504;13.438;2023-09-19T06:28:45;100510.00;;;21.40
71564;BMP180;59391;52.504;13.438;2023-09-19T06:31:10;100507.00;;;21.40
71564;BMP180;59391;52.504;13.438;2023-09-19T06:33:37;100510.00;;;21.40
71564;BMP180;59391;52.504;13.438;2023-09-19T06:36:07;100514.00;;;21.50
71564;BMP180;59391;52.504;13.438;2023-09-19T06:38:33;100514.00;;;21.50
71564;BMP180;59391;52.504;13.438;2023-09-19T06:41:02;100521.00;;;21.50
71564;BMP180;59391;52.504;13.438;2023-09-19T06:43:33;100513.00;;;21.50
71564;BMP180;59391;52.504;13.438;2023-09-19T06:46:01;100515.00;;;21.50
71564;BMP180;59391;52.504;13.438;2023-09-19T06:48:27;100526.00;;;21.60
71564;BMP180;59391;52.504;13.438;2023-09-19T06:50:55;100527.00;;;21.60
71564;BMP180;59391;52.504;13.438;2023-09-19T06:53:21;100529.00;;;21.50
71564;BMP180;59391;52.504;13.438;2023-09-19T06:55:50;100530.00;;;21.60
71564;BMP180;59391;52.504;13.438;2023-09-19T06:58:16;100528.00;;;21.60
71564;BMP180;59391;52.504;13.438;2023-09-19T07:00:42;100528.00;;;21.70
71564;BMP180;59391;52.504;13.438;2023-09-19T07:03:08;100530.00;;;21.70
71564;BMP180;59391;52.504;13.438;2023-09-19T07:05:38;100544.00;;;21.70
71564;BMP180;59391;52.504;13.438;2023-09-19T07:08:09;100523.00;;;21.70
71564;BMP180;59391;52.504;13.438;2023-09-19T07:10:41;100531.00;;;21.70
71564;BMP180;59391;52.504;13.438;2023-09-19T07:13:10;100535.00;;;21.70
71564;BMP180;59391;52.504;13.438;2023-09-19T07:15:38;100548.00;;;21.80
71564;BMP180;59391;52.504;13.438;2023-09-19T07:18:07;100545.00;;;21.90
71564;BMP180;59391;52.504;13.438;2023-09-19T07:20:34;100555.00;;;22.10
71564;BMP180;59391;52.504;13.438;2023-09-19T07:23:00;100553.00;;;22.20
71564;BMP180;59391;52.504;13.438;2023-09-19T07:25:27;100541.00;;;22.30
71564;BMP180;59391;52.504;13.438;2023-09-19T07:27:56;100549.00;;;22.40
71564;BMP180;59391;52.504;13.438;2023-09-19T07:30:22;100548.00;;;22.30
71564;BMP180;59391;52.504;13.438;2023-09-19T07:32:48;100575.00;;;22.40
71564;BMP180;59391;52.504;13.438;2023-09-19T07:35:13;100559.00;;;22.50
71564;BMP180;59391;52.504;13.438;2023-09-19T07:37:40;100560.00;;;22.50
71564;BMP180;59391;52.504;13.438;2023-09-19T07:40:06;100559.00;;;22.60
71564;BMP180;59391;52.504;13.438;2023-09-19T07:42:33;100566.00;;;22.60
71564;BMP180;59391;52.504;13.438;2023-09-19T07:45:02;100568.00;;;22.70
71564;BMP180;59391;52.504;13.438;2023-09-19T07:47:28;100589.00;;;22.80
71564;BMP180;59391;52.504;13.438;2023-09-19T07:49:55;100569.00;;;22.90
71564;BMP180;59391;52.504;13.438;2023-09-19T07:52:21;100567.00;;;22.90
71564;BMP180;59391;52.504;13.438;2023-09-19T07:54:48;100579.00;;;23.00
71564;BMP180;59391;52.504;13.438;2023-09-19T07:57:15;100579.00;;;23.00
71564;BMP180;59391;52.504;13.438;2023-09-19T07:59:41;100601.00;;;23.10
71564;BMP180;59391;52.504;13.438;2023-09-19T08:02:08;100616.00;;;23.20
71564;BMP180;59391;52.504;13.438;2023-09-19T08:04:42;100608.00;;;23.30
71564;BMP180;59391;52.504;13.438;2023-09-19T08:07:08;100606.00;;;23.40
71564;BMP180;59391;52.504;13.438;2023-09-19T08:09:34;100609.00;;;23.40
71564;BMP180;59391;52.504;13.438;2023-09-19T08:12:00;100606.00;;;23.50
71564;BMP180;59391;52.504;13.438;2023-09-19T08:14:30;100605.00;;;23.50
71564;BMP180;59391;52.504;13.438;2023-09-19T08:16:59;100596.00;;;23.70
71564;BMP180;59391;52.504;13.438;2023-09-19T08:19:26;100586.00;;;24.10
71564;BMP180;59391;52.504;13.438;2023-09-19T08:21:58;100600.00;;;24.30
71564;BMP180;59391;52.504;13.438;2023-09-19T08:24:30;100607.00;;;24.40
71564;BMP180;59391;52.504;13.438;2023-09-19T08:26:57;100601.00;;;24.40
71564;BMP180;59391;52.504;13.438;2023-09-19T08:29:24;100607.00;;;24.30
71564;BMP180;59391;52.504;13.438;2023-09-19T08:31:55;100608.00;;;24.20
71564;BMP180;59391;52.504;13.438;2023-09-19T08:34:22;100603.00;;;24.10
71564;BMP180;59391;52.504;13.438;2023-09-19T08:36:50;100613.00;;;24.00
71564;BMP180;59391;52.504;13.438;2023-09-19T08:39:16;100620.00;;;23.90
71564;BMP180;59391;52.504;13.438;2023-09-19T08:41:42;100617.00;;;24.00
71564;BMP180;59391;52.504;13.438;2023-09-19T08:44:08;100622.00;;;24.20
71564;BMP180;59391;52.504;13.438;2023-09-19T08:46:40;100617.00;;;24.50
71564;BMP180;59391;52.504;13.438;2023-09-19T08:49:34;100628.00;;;24.70
71564;BMP180;59391;52.504;13.438;2023-09-19T08:52:18;100637.00;;;24.70
71564;BMP180;59391;52.504;13.438;2023-09-19T08:54:48;100629.00;;;25.00
71564;BMP180;59391;52.504;13.438;2023-09-19T08:57:17;100634.00;;;25.20
71564;BMP180;59391;52.504;13.438;2023-09-19T08:59:48;100641.00;;;25.30
71564;BMP180;59391;52.504;13.438;2023-09-19T09:02:18;100633.00;;;25.50
71564;BMP180;59391;52.504;13.438;2023-09-19T09:04:48;100642.00;;;25.60
71564;BMP180;59391;52.504;13.438;2023-09-19T09:07:14;100639.00;;;25.60
71564;BMP180;59391;52.504;13.438;2023-09-19T09:09:42;100648.00;;;25.50
71564;BMP180;59391;52.504;13.438;2023-09-19T09:12:12;100652.00;;;25.50
71564;BMP180;59391;52.504;13.438;2023-09-19T09:14:39;100654.00;;;25.60
71564;BMP180;59391;52.504;13.438;2023-09-19T09:17:05;100655.00;;;25.80
71564;BMP180;59391;52.504;13.438;2023-09-19T09:19:32;100657.00;;;25.90
71564;BMP180;59391;52.504;13.438;2023-09-19T09:22:08;100662.00;;;25.90
71564;BMP180;59391;52.504;13.438;2023-09-19T09:24:34;100655.00;;;26.10
71564;BMP180;59391;52.504;13.438;2023-09-19T09:27:05;100655.00;;;26.40
71564;BMP180;59391;52.504;13.438;2023-09-19T09:29:46;100655.00;;;26.70
71564;BMP180;59391;52.504;13.438;2023-09-19T09:32:30;100644.00;;;26.80
71564;BMP180;59391;52.504;13.438;2023-09-19T09:35:00;100657.00;;;26.90
71564;BMP180;59391;52.504;13.438;2023-09-19T09:37:28;100646.00;;;26.80
71564;BMP180;59391;52.504;13.438;2023-09-19T09:40:00;100655.00;;;26.70
71564;BMP180;59391;52.504;13.438;2023-09-19T09:42:45;100663.00;;;26.70
71564;BMP180;59391;52.504;13.438;2023-09-19T09:45:23;100653.00;;;26.50
71564;BMP180;59391;52.504;13.438;2023-09-19T09:47:58;100643.00;;;26.40
71564;BMP180;59391;52.504;13.438;2023-09-19T09:50:48;100645.00;;;26.40
71564;BMP180;59391;52.504;13.438;2023-09-19T09:53:28;100661.00;;;26.70
71564;BMP180;59391;52.504;13.438;2023-09-19T09:56:04;100662.00;;;27.10
71564;BMP180;59391;52.504;13.438;2023-09-19T09:58:51;100666.00;;;27.70
71564;BMP180;59391;52.504;13.438;2023-09-19T10:01:24;100662.00;;;28.10
71564;BMP180;59391;52.504;13.438;2023-09-19T10:03:58;100666.00;;;28.30
71564;BMP180;59391;52.504;13.438;2023-09-19T10:06:25;100675.00;;;28.50
71564;BMP180;59391;52.504;13.438;2023-09-19T10:11:45;100676.00;;;28.90
71564;BMP180;59391;52.504;13.438;2023-09-19T10:14:16;100686.00;;;29.20
71564;BMP180;59391;52.504;13.438;2023-09-19T10:16:47;100685.00;;;29.40
71564;BMP180;59391;52.504;13.438;2023-09-19T10:19:55;100688.00;;;29.50
71564;BMP180;59391;52.504;13.438;2023-09-19T10:22:15;100682.00;;;29.40
71564;BMP180;59391;52.504;13.438;2023-09-19T10:24:47;100684.00;;;29.40
71564;BMP180;59391;52.504;13.438;2023-09-19T10:27:15;100682.00;;;29.50
71564;BMP180;59391;52.504;13.438;2023-09-19T10:29:44;100673.00;;;29.40
71564;BMP180;59391;52.504;13.438;2023-09-19T10:32:14;100677.00;;;29.40
71564;BMP180;59391;52.504;13.438;2023-09-19T10:34:49;100668.00;;;29.30
71564;BMP180;59391;52.504;13.438;2023-09-19T10:37:16;100677.00;;;29.10
71564;BMP180;59391;52.504;13.438;2023-09-19T10:39:50;100686.00;;;28.80
71564;BMP180;59391;52.504;13.438;2023-09-19T10:42:20;100668.00;;;28.70
71564;BMP180;59391;52.504;13.438;2023-09-19T10:44:51;100673.00;;;28.40
71564;BMP180;59391;52.504;13.438;2023-09-19T10:47:20;100671.00;;;28.30
71564;BMP180;59391;52.504;13.438;2023-09-19T10:49:47;100665.00;;;28.40
71564;BMP180;59391;52.504;13.438;2023-09-19T10:52:16;100680.00;;;28.60
71564;BMP180;59391;52.504;13.438;2023-09-19T10:54:51;100696.00;;;28.50
71564;BMP180;59391;52.504;13.438;2023-09-19T10:57:22;100682.00;;;28.20
71564;BMP180;59391;52.504;13.438;2023-09-19T11:00:09;100683.00;;;28.10
71564;BMP180;59391;52.504;13.438;2023-09-19T11:03:22;100663.00;;;28.20
71564;BMP180;59391;52.504;13.438;2023-09-19T11:06:14;100692.00;;;28.40
71564;BMP180;59391;52.504;13.438;2023-09-19T11:09:01;100689.00;;;28.20
71564;BMP180;59391;52.504;13.438;2023-09-19T11:30:37;100688.00;;;28.70
71564;BMP180;59391;52.504;13.438;2023-09-19T11:36:10;100700.00;;;28.40
71564;BMP180;59391;52.504;13.438;2023-09-19T11:49:19;100682.00;;;28.20
71564;BMP180;59391;52.504;13.438;2023-09-19T11:51:51;100694.00;;;27.90
71564;BMP180;59391;52.504;13.438;2023-09-19T11:54:17;100686.00;;;27.60
71564;BMP180;59391;52.504;13.438;2023-09-19T11:56:45;100692.00;;;27.50
71564;BMP180;59391;52.504;13.438;2023-09-19T11:59:11;100688.00;;;27.60
71564;BMP180;59391;52.504;13.438;2023-09-19T12:01:52;100693.00;;;27.50
71564;BMP180;59391;52.504;13.438;2023-09-19T12:04:38;100687.00;;;27.50
71564;BMP180;59391;52.504;13.438;2023-09-19T12:07:12;100722.00;;;27.40
71564;BMP180;59391;52.504;13.438;2023-09-19T12:09:47;100708.00;;;27.00
71564;BMP180;59391;52.504;13.438;2023-09-19T12:12:25;100690.00;;;26.80
71564;BMP180;59391;52.504;13.438;2023-09-19T12:14:54;100692.00;;;26.80
71564;BMP180;59391;52.504;13.438;2023-09-19T12:17:22;100683.00;;;26.90
71564;BMP180;59391;52.504;13.438;2023-09-19T12:19:56;100695.00;;;27.00
71564;BMP180;59391;52.504;13.438;2023-09-19T12:22:22;100697.00;;;27.20
71564;BMP180;59391;52.504;13.438;2023-09-19T12:24:48;100698.00;;;27.30
71564;BMP180;59391;52.504;13.438;2023-09-19T12:27:16;100705.00;;;27.20
71564;BMP180;59391;52.504;13.438;2023-09-19T12:29:47;100690.00;;;27.00
71564;BMP180;59391;52.504;13.438;2023-09-19T12:32:34;100693.00;;;26.90
71564;BMP180;59391;52.504;13.438;2023-09-19T12:35:01;100678.00;;;26.90
71564;BMP180;59391;52.504;13.438;2023-09-19T12:37:33;100713.00;;;26.80
71564;BMP180;59391;52.504;13.438;2023-09-19T12:40:09;100703.00;;;26.70
71564;BMP180;59391;52.504;13.438;2023-09-19T12:42:49;100692.00;;;26.60
71564;BMP180;59391;52.504;13.438;2023-09-19T12:45:18;100697.00;;;26.60
71564;BMP180;59391;52.504;13.438;2023-09-19T12:48:22;100687.00;;;26.50
71564;BMP180;59391;52.504;13.438;2023-09-19T12:51:07;100684.00;;;26.50
71564;BMP180;59391;52.504;13.438;2023-09-19T12:53:42;100673.00;;;26.50
71564;BMP180;59391;52.504;13.438;2023-09-19T12:56:11;100685.00;;;26.60
71564;BMP180;59391;52.504;13.438;2023-09-19T12:58:54;100687.00;;;26.60
71564;BMP180;59391;52.504;13.438;2023-09-19T13:01:20;100690.00;;;26.60
71564;BMP180;59391;52.504;13.438;2023-09-19T13:06:37;100694.00;;;26.50
71564;BMP180;59391;52.504;13.438;2023-09-19T13:09:10;100703.00;;;26.50
71564;BMP180;59391;52.504;13.438;2023-09-19T13:11:38;100702.00;;;26.40
71564;BMP180;59391;52.504;13.438;2023-09-19T13:14:23;100698.00;;;26.30
71564;BMP180;59391;52.504;13.438;2023-09-19T13:17:08;100698.00;;;26.20
71564;BMP180;59391;52.504;13.438;2023-09-19T13:19:49;100689.00;;;26.20
71564;BMP180;59391;52.504;13.438;2023-09-19T13:22:45;100703.00;;;26.00
71564;BMP180;59391;52.504;13.438;2023-09-19T13:25:16;100710.00;;;25.90
71564;BMP180;59391;52.504;13.438;2023-09-19T13:27:53;100707.00;;;25.50
71564;BMP180;59391;52.504;13.438;2023-09-19T13:30:21;100693.00;;;25.60
71564;BMP180;59391;52.504;13.438;2023-09-19T13:32:48;100687.00;;;25.60
71564;BMP180;59391;52.504;13.438;2023-09-19T13:35:15;100687.00;;;25.60
71564;BMP180;59391;52.504;13.438;2023-09-19T13:37:42;100696.00;;;25.70
71564;BMP180;59391;52.504;13.438;2023-09-19T13:40:13;100697.00;;;25.70
71564;BMP180;59391;52.504;13.438;2023-09-19T13:42:40;100677.00;;;25.70
71564;BMP180;59391;52.504;13.438;2023-09-19T13:45:07;100701.00;;;25.70
71564;BMP180;59391;52.504;13.438;2023-09-19T13:47:33;100695.00;;;25.70
71564;BMP180;59391;52.504;13.438;2023-09-19T13:50:01;100687.00;;;25.60
71564;BMP180;59391;52.504;13.438;2023-09-19T13:52:32;100690.00;;;25.60
71564;BMP180;59391;52.504;13.438;2023-09-19T13:54:58;100680.00;;;25.60
71564;BMP180;59391;52.504;13.438;2023-09-19T13:57:25;100697.00;;;25.40
71564;BMP180;59391;52.504;13.438;2023-09-19T13:59:52;100684.00;;;25.20
71564;BMP180;59391;52.504;13.438;2023-09-19T14:02:23;100675.00;;;25.20
71564;BMP180;59391;52.504;13.438;2023-09-19T14:04:51;100676.00;;;25.30
71564;BMP180;59391;52.504;13.438;2023-09-19T14:07:17;100675.00;;;25.30
71564;BMP180;59391;52.504;13.438;2023-09-19T14:09:44;100684.00;;;25.30
71564;BMP180;59391;52.504;13.438;2023-09-19T14:12:11;100675.00;;;25.30
71564;BMP180;59391;52.504;13.438;2023-09-19T14:14:39;100674.00;;;25.40
71564;BMP180;59391;52.504;13.438;2023-09-19T14:17:10;100677.00;;;25.40
71564;BMP180;59391;52.504;13.438;2023-09-19T14:19:41;100680.00;;;25.40
71564;BMP180;59391;52.504;13.438;2023-09-19T14:22:10;100681.00;;;25.50
71564;BMP180;59391;52.504;13.438;2023-09-19T14:24:35;100676.00;;;25.50
71564;BMP180;59391;52.504;13.438;2023-09-19T14:27:01;100697.00;;;25.50
71564;BMP180;59391;52.504;13.438;2023-09-19T14:29:30;100680.00;;;25.40
71564;BMP180;59391;52.504;13.438;2023-09-19T14:31:56;100670.00;;;25.30
71564;BMP180;59391;52.504;13.438;2023-09-19T14:34:23;100682.00;;;25.30
71564;BMP180;59391;52.504;13.438;2023-09-19T14:36:48;100675.00;;;25.20
71564;BMP180;59391;52.504;13.438;2023-09-19T14:39:14;100673.00;;;25.20
71564;BMP180;59391;52.504;13.438;2023-09-19T14:41:40;100661.00;;;25.20
71564;BMP180;59391;52.504;13.438;2023-09-19T14:44:05;100665.00;;;25.20
71564;BMP180;59391;52.504;13.438;2023-09-19T14:46:31;100664.00;;;25.20
71564;BMP180;59391;52.504;13.438;2023-09-19T14:48:56;100671.00;;;25.10
71564;BMP180;59391;52.504;13.438;2023-09-19T14:51:25;100651.00;;;25.10